createdAt,value
2023-02-15T00:01:53.234Z,53.47
2023-02-15T00:04:47.539Z,46.30
2023-02-15T00:07:32.786Z,54.17
2023-02-15T00:10:18.242Z,49.55
2023-02-15T00:13:03.505Z,51.78
2023-02-15T00:15:48.503Z,48.10
2023-02-15T00:18:34.451Z,48.45
2023-02-15T00:21:19.802Z,47.00
2023-02-15T00:24:07.133Z,51.63
2023-02-15T00:26:52.219Z,47.97
2023-02-15T00:29:37.653Z,53.47
2023-02-15T00:32:23.158Z,48.45
2023-02-15T00:35:08.408Z,58.22
2023-02-15T00:37:53.657Z,52.72
2023-02-15T00:40:39.200Z,45.97
2023-02-15T00:43:24.422Z,51.65
2023-02-15T00:46:10.021Z,55.65
2023-02-15T00:48:55.254Z,49.88
2023-02-15T00:51:40.531Z,52.83
2023-02-15T00:54:25.639Z,56.40
2023-02-15T00:57:11.037Z,53.60
2023-02-15T00:59:56.579Z,59.67
2023-02-15T01:02:41.972Z,53.75
2023-02-15T01:05:27.474Z,57.20
2023-02-15T01:08:12.761Z,55.28
2023-02-15T01:10:58.113Z,61.45
2023-02-15T01:13:43.257Z,62.15
2023-02-15T01:16:30.218Z,60.15
2023-02-15T01:19:15.210Z,58.88
2023-02-15T01:22:00.564Z,55.47
2023-02-15T01:24:46.227Z,61.80
2023-02-15T01:27:31.834Z,57.25
2023-02-15T01:30:17.682Z,57.63
2023-02-15T01:33:03.386Z,58.42
2023-02-15T01:35:50.026Z,60.28
2023-02-15T01:38:36.467Z,59.42
2023-02-15T01:41:23.720Z,62.22
2023-02-15T01:44:46.485Z,55.25
2023-02-15T01:47:41.872Z,60.67
2023-02-15T01:50:35.461Z,59.85
2023-02-15T01:53:37.902Z,54.67
2023-02-15T01:56:32.771Z,61.22
2023-02-15T01:59:22.954Z,66.28
2023-02-15T02:02:12.828Z,62.03
2023-02-15T02:05:07.178Z,61.20
2023-02-15T02:07:57.927Z,60.72
2023-02-15T02:10:43.508Z,64.22
2023-02-15T02:13:29.397Z,64.30
2023-02-15T02:16:51.918Z,62.03
2023-02-15T02:20:28.852Z,71.25
2023-02-15T02:23:30.839Z,66.70
2023-02-15T02:26:46.949Z,62.88
2023-02-15T02:29:57.679Z,68.75
2023-02-15T02:33:03.556Z,64.50
2023-02-15T02:36:05.763Z,67.03
2023-02-15T02:39:28.328Z,74.10
2023-02-15T02:42:34.358Z,77.18
2023-02-15T02:45:32.988Z,70.37
2023-02-15T02:48:24.559Z,66.25
2023-02-15T02:51:10.070Z,72.38
2023-02-15T02:53:59.551Z,78.13
2023-02-15T02:56:49.367Z,78.90
2023-02-15T02:59:40.248Z,75.55
2023-02-15T03:02:32.976Z,76.15
2023-02-15T03:05:26.101Z,78.50
2023-02-15T03:08:22.870Z,87.10
2023-02-15T03:11:09.109Z,90.45
2023-02-15T03:13:54.221Z,102.88
2023-02-15T03:16:42.583Z,98.13
2023-02-15T03:19:35.195Z,92.78
2023-02-15T03:22:37.182Z,106.10
2023-02-15T03:25:28.298Z,88.50
2023-02-15T03:28:24.396Z,100.88
2023-02-15T03:31:12.849Z,91.60
2023-02-15T03:34:04.333Z,85.07
2023-02-15T03:37:13.896Z,92.25
2023-02-15T03:40:35.898Z,92.82
2023-02-15T03:43:27.062Z,81.30
2023-02-15T03:46:28.717Z,86.38
2023-02-15T03:49:23.389Z,88.30
2023-02-15T03:52:11.441Z,86.35
2023-02-15T03:54:57.253Z,84.95
2023-02-15T03:58:02.342Z,81.63
2023-02-15T04:01:15.224Z,86.68
2023-02-15T04:04:18.620Z,82.88
2023-02-15T04:07:06.234Z,81.47
2023-02-15T04:10:10.319Z,93.13
2023-02-15T04:12:55.518Z,85.90
2023-02-15T04:15:59.768Z,85.78
2023-02-15T04:19:04.061Z,91.72
2023-02-15T04:22:08.072Z,88.75
2023-02-15T04:25:14.616Z,89.80
2023-02-15T04:28:00.150Z,80.43
2023-02-15T04:30:45.403Z,87.20
2023-02-15T04:33:30.714Z,88.40
2023-02-15T04:36:16.162Z,87.38
2023-02-15T04:39:01.723Z,87.10
2023-02-15T04:41:48.632Z,79.40
2023-02-15T04:44:33.817Z,86.35
2023-02-15T04:47:19.484Z,86.60
2023-02-15T04:50:05.209Z,91.05
2023-02-15T04:52:50.273Z,89.38
2023-02-15T04:55:35.713Z,82.85
2023-02-15T04:58:21.044Z,88.65
2023-02-15T05:01:06.534Z,84.32
2023-02-15T05:03:51.774Z,83.00
2023-02-15T05:06:37.243Z,88.00
2023-02-15T05:09:22.898Z,84.43
2023-02-15T05:12:08.096Z,90.47
2023-02-15T05:14:53.427Z,87.78
2023-02-15T05:17:39.081Z,78.68
2023-02-15T05:20:24.534Z,83.53
2023-02-15T05:23:10.141Z,78.28
2023-02-15T05:26:13.769Z,85.65
2023-02-15T05:28:58.948Z,83.68
2023-02-15T05:31:48.076Z,85.47
2023-02-15T05:34:33.602Z,89.97
2023-02-15T05:37:19.310Z,84.70
2023-02-15T05:40:05.012Z,83.95
2023-02-15T05:42:50.377Z,86.90
2023-02-15T05:45:35.887Z,89.47
2023-02-15T05:48:23.668Z,83.20
2023-02-15T05:51:14.079Z,93.25
2023-02-15T05:53:59.488Z,104.68
2023-02-15T05:56:44.979Z,84.13
2023-02-15T05:59:30.340Z,84.57
2023-02-15T06:02:15.961Z,98.07
2023-02-15T06:05:01.288Z,101.18
2023-02-15T06:07:46.751Z,94.95
2023-02-15T06:10:32.137Z,100.38
2023-02-15T06:13:17.573Z,96.35
2023-02-15T06:16:03.193Z,100.57
2023-02-15T06:18:48.451Z,91.97
2023-02-15T06:21:33.980Z,93.93
2023-02-15T06:24:19.328Z,95.40
2023-02-15T06:27:04.935Z,93.22
2023-02-15T06:29:50.558Z,93.07
2023-02-15T06:32:35.802Z,95.85
2023-02-15T06:35:21.050Z,102.03
2023-02-15T06:38:06.990Z,98.47
2023-02-15T06:40:52.204Z,98.63
2023-02-15T06:43:38.871Z,105.65
2023-02-15T06:46:25.345Z,101.88
2023-02-15T06:49:10.823Z,93.90
2023-02-15T06:51:55.975Z,103.85
2023-02-15T06:54:41.334Z,90.78
2023-02-15T06:57:26.833Z,99.78
2023-02-15T07:00:12.967Z,102.80
2023-02-15T07:02:59.106Z,102.30
2023-02-15T07:05:45.455Z,105.30
2023-02-15T07:08:30.851Z,91.53
2023-02-15T07:11:34.904Z,89.40
2023-02-15T07:14:20.342Z,83.50
2023-02-15T07:17:11.648Z,87.88
2023-02-15T07:19:59.952Z,89.53
2023-02-15T07:22:45.751Z,83.93
2023-02-15T07:25:31.482Z,81.88
2023-02-15T07:28:17.117Z,89.07
2023-02-15T07:31:04.244Z,76.32
2023-02-15T07:33:49.221Z,80.20
2023-02-15T07:36:34.592Z,84.35
2023-02-15T07:39:20.481Z,80.53
2023-02-15T07:42:05.923Z,90.75
2023-02-15T07:44:51.608Z,92.45
2023-02-15T07:47:37.052Z,85.32
2023-02-15T07:50:22.745Z,82.45
2023-02-15T07:53:08.044Z,79.85
2023-02-15T07:55:53.381Z,79.07
2023-02-15T07:58:54.864Z,81.28
2023-02-15T08:01:40.515Z,81.53
2023-02-15T08:04:25.681Z,82.15
2023-02-15T08:07:10.734Z,80.25
2023-02-15T08:09:55.873Z,77.30
2023-02-15T08:12:41.326Z,81.32
2023-02-15T08:15:26.847Z,82.80
2023-02-15T08:18:12.106Z,88.40
2023-02-15T08:20:57.201Z,74.05
2023-02-15T08:23:42.535Z,69.40
2023-02-15T08:26:29.192Z,79.10
2023-02-15T08:29:16.672Z,82.15
2023-02-15T08:32:05.473Z,73.72
2023-02-15T08:34:50.744Z,54.03
2023-02-15T08:37:35.775Z,73.55
2023-02-15T08:40:21.501Z,77.30
2023-02-15T08:43:07.972Z,75.45
2023-02-15T08:45:53.568Z,72.50
2023-02-15T08:48:39.308Z,76.68
2023-02-15T08:51:26.803Z,70.55
2023-02-15T08:54:15.696Z,76.22
2023-02-15T08:57:01.028Z,77.45
2023-02-15T08:59:46.162Z,77.32
2023-02-15T09:02:31.703Z,71.90
2023-02-15T09:05:17.301Z,68.35
2023-02-15T09:08:02.345Z,93.35
2023-02-15T09:10:48.179Z,80.05
2023-02-15T09:13:33.405Z,72.63
2023-02-15T09:16:18.927Z,74.72
2023-02-15T09:19:05.921Z,69.10
2023-02-15T09:21:51.362Z,70.68
2023-02-15T09:24:36.499Z,74.00
2023-02-15T09:27:21.963Z,75.97
2023-02-15T09:30:07.953Z,68.68
2023-02-15T09:32:53.408Z,62.35
2023-02-15T09:35:38.549Z,65.45
2023-02-15T09:38:23.959Z,62.85
2023-02-15T09:41:23.075Z,62.70
2023-02-15T09:44:38.994Z,70.88
2023-02-15T09:47:46.861Z,64.53
2023-02-15T09:50:58.683Z,68.65
2023-02-15T09:54:16.665Z,57.03
2023-02-15T09:57:14.310Z,62.53
2023-02-15T10:00:25.132Z,62.22
2023-02-15T10:03:33.608Z,62.60
2023-02-15T10:06:29.827Z,63.23
2023-02-15T10:09:34.307Z,63.08
2023-02-15T10:12:38.411Z,68.88
2023-02-15T10:15:51.906Z,62.58
2023-02-15T10:19:08.913Z,62.85
2023-02-15T10:22:05.763Z,60.80
2023-02-15T10:25:00.104Z,57.00
2023-02-15T10:27:51.003Z,54.40
2023-02-15T10:30:43.205Z,56.38
2023-02-15T10:33:41.150Z,59.95
2023-02-15T10:37:17.816Z,57.63
2023-02-15T10:40:33.737Z,55.92
2023-02-15T10:43:34.602Z,53.40
2023-02-15T10:46:38.099Z,60.33
2023-02-15T10:49:55.129Z,58.72
2023-02-15T10:52:47.031Z,59.35
2023-02-15T10:55:37.974Z,54.22
2023-02-15T10:58:46.926Z,55.75
2023-02-15T11:01:39.243Z,54.13
2023-02-15T11:04:55.518Z,53.03
2023-02-15T11:07:44.694Z,49.50
2023-02-15T11:11:03.242Z,54.53
2023-02-15T11:13:53.864Z,56.03
2023-02-15T11:16:45.159Z,54.22
2023-02-15T11:19:34.601Z,55.63
2023-02-15T11:22:20.615Z,52.05
2023-02-15T11:25:20.292Z,59.55
2023-02-15T11:28:15.041Z,71.25
2023-02-15T11:31:11.726Z,59.60
2023-02-15T11:34:07.238Z,55.42
2023-02-15T11:36:56.638Z,56.92
2023-02-15T11:39:43.073Z,62.67
2023-02-15T11:42:32.760Z,59.30
2023-02-15T11:45:21.392Z,43.42
2023-02-15T11:48:12.584Z,56.22
2023-02-15T11:50:58.431Z,56.75
2023-02-15T11:53:45.539Z,53.53
2023-02-15T11:56:32.640Z,57.33
2023-02-15T11:59:30.621Z,55.28
2023-02-15T12:02:28.424Z,48.75
2023-02-15T12:05:19.970Z,49.42
2023-02-15T12:08:16.017Z,48.35
2023-02-15T12:11:13.094Z,45.65
2023-02-15T12:14:06.115Z,43.65
2023-02-15T12:16:54.295Z,45.67
2023-02-15T12:19:41.445Z,51.17
2023-02-15T12:22:31.187Z,45.33
2023-02-15T12:25:30.179Z,47.53
2023-02-15T12:28:31.187Z,47.50
2023-02-15T12:31:25.105Z,43.25
2023-02-15T12:34:20.110Z,41.78
2023-02-15T12:37:21.906Z,45.22
2023-02-15T12:40:26.813Z,46.10
2023-02-15T12:43:32.275Z,46.13
2023-02-15T12:46:26.811Z,45.70
2023-02-15T12:49:20.841Z,42.85
2023-02-15T12:52:18.807Z,41.95
2023-02-15T12:55:21.628Z,37.08
2023-02-15T12:58:26.370Z,38.53
2023-02-15T13:01:17.718Z,34.20
2023-02-15T13:04:15.471Z,42.08
2023-02-15T13:07:03.607Z,48.13
2023-02-15T13:09:50.807Z,46.33
2023-02-15T13:12:36.282Z,45.33
2023-02-15T13:15:28.414Z,42.63
2023-02-15T13:18:20.732Z,53.42
2023-02-15T13:21:17.644Z,50.88
2023-02-15T13:24:07.342Z,49.53
2023-02-15T13:27:09.422Z,48.70
2023-02-15T13:30:04.798Z,49.13
2023-02-15T13:32:55.676Z,43.83
2023-02-15T13:35:48.394Z,56.22
2023-02-15T13:38:46.959Z,47.10
2023-02-15T13:41:38.976Z,48.40
2023-02-15T13:45:02.124Z,46.75
2023-02-15T13:48:22.018Z,41.22
2023-02-15T13:51:25.854Z,43.42
2023-02-15T13:54:29.500Z,47.67
2023-02-15T13:57:43.771Z,41.60
2023-02-15T14:00:44.351Z,38.25
2023-02-15T14:03:49.032Z,41.10
2023-02-15T14:06:48.277Z,34.92
2023-02-15T14:09:48.987Z,37.08
2023-02-15T14:12:40.484Z,34.13
2023-02-15T14:15:46.464Z,33.00
2023-02-15T14:19:16.411Z,34.17
2023-02-15T14:22:26.874Z,33.00
2023-02-15T14:25:33.443Z,31.98
2023-02-15T14:28:22.856Z,31.02
2023-02-15T14:31:11.357Z,32.67
2023-02-15T14:33:58.412Z,36.20
2023-02-15T14:36:44.156Z,36.10
2023-02-15T14:40:04.531Z,34.40
2023-02-15T14:42:54.283Z,31.83
2023-02-15T14:51:41.428Z,29.35
2023-02-15T14:54:26.768Z,33.45
2023-02-15T14:57:12.822Z,31.85
2023-02-15T15:00:00.970Z,33.15
2023-02-15T15:02:50.560Z,36.20
2023-02-15T15:08:52.598Z,36.35
2023-02-15T15:11:44.659Z,33.28
2023-02-15T15:14:35.569Z,38.30
2023-02-15T15:17:33.245Z,35.95
2023-02-15T15:20:28.069Z,33.15
2023-02-15T15:23:16.236Z,34.13
2023-02-15T15:26:25.837Z,35.17
2023-02-15T15:29:11.054Z,33.75
2023-02-15T15:32:00.339Z,31.05
2023-02-15T15:35:11.240Z,32.97
2023-02-15T15:38:18.460Z,31.20
2023-02-15T15:41:16.305Z,31.42
2023-02-15T15:44:52.672Z,32.67
2023-02-15T15:48:06.370Z,29.83
2023-02-15T15:50:57.640Z,31.38
2023-02-15T15:53:49.328Z,33.55
2023-02-15T15:56:37.974Z,29.38
2023-02-15T15:59:26.757Z,32.85
2023-02-15T16:02:17.974Z,39.90
2023-02-15T16:05:10.025Z,39.38
2023-02-15T16:07:55.655Z,43.35
2023-02-15T16:10:41.640Z,42.90
2023-02-15T16:13:27.738Z,41.90
2023-02-15T16:16:20.222Z,38.58
2023-02-15T16:19:06.461Z,41.65
2023-02-15T16:21:52.145Z,41.00
2023-02-15T16:24:56.389Z,38.50
2023-02-15T16:27:43.770Z,39.83
2023-02-15T16:30:32.514Z,42.70
2023-02-15T16:33:18.275Z,41.38
2023-02-15T16:36:04.482Z,42.42
2023-02-15T16:38:52.719Z,44.65
2023-02-15T16:41:39.102Z,41.30
2023-02-15T16:44:24.806Z,40.78
2023-02-15T16:47:18.874Z,38.20
2023-02-15T16:50:05.422Z,43.00
2023-02-15T16:52:52.355Z,37.88
2023-02-15T16:55:43.160Z,41.13
2023-02-15T16:58:41.849Z,42.28
2023-02-15T17:01:33.120Z,40.40
2023-02-15T17:04:21.533Z,43.97
2023-02-15T17:07:17.498Z,41.88
2023-02-15T17:10:02.985Z,41.22
2023-02-15T17:12:56.057Z,49.45
2023-02-15T17:15:44.346Z,43.90
2023-02-15T17:18:39.712Z,46.42
2023-02-15T17:21:41.281Z,46.17
2023-02-15T17:24:36.567Z,45.08
2023-02-15T17:27:27.572Z,47.58
2023-02-15T17:30:34.317Z,51.78
2023-02-15T17:33:40.265Z,48.33
2023-02-15T17:36:30.846Z,46.22
2023-02-15T17:39:23.296Z,40.38
2023-02-15T17:42:08.818Z,41.55
2023-02-15T17:44:54.103Z,42.88
2023-02-15T17:47:41.051Z,50.53
2023-02-15T17:50:28.482Z,44.38
2023-02-15T17:53:18.586Z,44.03
2023-02-15T17:56:10.764Z,44.70
2023-02-15T17:58:55.896Z,46.95
2023-02-15T18:02:06.038Z,50.63
2023-02-15T18:05:09.896Z,46.15
2023-02-15T18:08:13.655Z,46.15
2023-02-15T18:11:18.590Z,42.05
2023-02-15T18:14:06.276Z,46.65
2023-02-15T18:16:52.094Z,47.40
2023-02-15T18:19:37.910Z,42.45
2023-02-15T18:22:23.119Z,52.08
2023-02-15T18:25:14.371Z,54.85
2023-02-15T18:27:59.808Z,57.47
2023-02-15T18:30:45.257Z,47.80
2023-02-15T18:33:41.738Z,49.63
2023-02-15T18:36:40.596Z,37.13
2023-02-15T18:39:34.155Z,41.72
2023-02-15T18:42:27.015Z,38.40
2023-02-15T18:45:28.284Z,31.85
2023-02-15T18:48:15.301Z,40.35
2023-02-15T18:51:00.503Z,40.08
2023-02-15T18:53:47.138Z,44.00
2023-02-15T18:56:32.855Z,47.63
2023-02-15T18:59:19.335Z,42.85
2023-02-15T19:02:10.607Z,43.42
2023-02-15T19:04:55.597Z,42.85
2023-02-15T19:07:43.715Z,45.20
2023-02-15T19:10:31.534Z,50.17
2023-02-15T19:13:17.491Z,52.75
2023-02-15T19:16:04.937Z,51.90
2023-02-15T19:18:50.120Z,49.22
2023-02-15T19:21:35.636Z,47.60
2023-02-15T19:24:39.083Z,55.35
2023-02-15T19:27:35.410Z,48.63
2023-02-15T19:30:30.336Z,50.17
2023-02-15T19:33:20.719Z,48.95
2023-02-15T19:36:13.641Z,54.38
2023-02-15T19:38:59.012Z,55.25
2023-02-15T19:41:44.215Z,60.13
2023-02-15T19:44:29.537Z,56.33
2023-02-15T19:47:14.982Z,44.28
2023-02-15T19:50:03.505Z,50.03
2023-02-15T19:52:48.900Z,52.22
2023-02-15T19:55:35.033Z,46.22
2023-02-15T19:58:21.405Z,46.25
2023-02-15T20:01:06.908Z,47.03
2023-02-15T20:03:53.302Z,47.38
2023-02-15T20:06:38.462Z,51.30
2023-02-15T20:09:27.172Z,47.05
2023-02-15T20:12:20.893Z,50.37
2023-02-15T20:15:27.614Z,62.58
2023-02-15T20:18:13.470Z,48.67
2023-02-15T20:20:59.304Z,55.03
2023-02-15T20:23:45.718Z,53.88
2023-02-15T20:26:32.837Z,50.90
2023-02-15T20:29:19.085Z,52.00
2023-02-15T20:32:04.639Z,51.28
2023-02-15T20:34:50.120Z,56.10
2023-02-15T20:37:35.493Z,52.83
2023-02-15T20:40:32.953Z,52.40
2023-02-15T20:43:18.090Z,56.35
2023-02-15T20:46:04.378Z,59.80
2023-02-15T20:48:49.806Z,55.55
2023-02-15T20:51:35.284Z,56.60
2023-02-15T20:54:25.320Z,52.22
2023-02-15T20:57:12.826Z,56.10
2023-02-15T21:00:00.305Z,57.28
2023-02-15T21:02:54.495Z,57.20
2023-02-15T21:05:39.905Z,62.60
2023-02-15T21:08:26.148Z,60.05
2023-02-15T21:11:23.050Z,64.32
2023-02-15T21:14:16.797Z,56.90
2023-02-15T21:17:04.601Z,62.70
2023-02-15T21:19:49.862Z,57.25
2023-02-15T21:22:35.287Z,57.60
2023-02-15T21:25:34.371Z,66.50
2023-02-15T21:28:21.674Z,59.17
2023-02-15T21:31:16.915Z,55.90
2023-02-15T21:34:02.266Z,55.60
2023-02-15T21:36:51.269Z,61.67
2023-02-15T21:39:36.866Z,56.83
2023-02-15T21:42:41.102Z,58.85
2023-02-15T21:45:44.812Z,57.00
2023-02-15T21:48:29.950Z,54.80
2023-02-15T21:51:33.719Z,62.80
2023-02-15T21:54:21.183Z,59.88
2023-02-15T21:57:06.849Z,53.60
2023-02-15T21:59:51.750Z,53.08
2023-02-15T22:02:37.359Z,57.25
2023-02-15T22:05:26.709Z,54.70
2023-02-15T22:08:13.478Z,52.90
2023-02-15T22:10:59.158Z,51.47
2023-02-15T22:13:46.011Z,53.78
2023-02-15T22:16:31.533Z,50.53
2023-02-15T22:19:16.981Z,50.25
2023-02-15T22:22:02.402Z,49.55
2023-02-15T22:24:56.582Z,48.97
2023-02-15T22:27:43.247Z,49.08
2023-02-15T22:30:32.739Z,51.63
2023-02-15T22:33:28.428Z,51.50
2023-02-15T22:36:25.700Z,49.22
2023-02-15T22:39:11.034Z,45.75
2023-02-15T22:41:56.974Z,46.03
2023-02-15T22:44:42.365Z,47.88
2023-02-15T22:47:29.735Z,50.42
2023-02-15T22:50:18.822Z,42.15
2023-02-15T22:53:04.403Z,43.08
2023-02-15T22:55:50.204Z,44.88
2023-02-15T22:58:35.886Z,49.38
2023-02-15T23:01:31.592Z,46.85
2023-02-15T23:04:23.230Z,44.97
2023-02-15T23:07:14.502Z,45.80
2023-02-15T23:09:59.749Z,48.90
2023-02-15T23:13:03.438Z,38.53
2023-02-15T23:15:52.349Z,41.45
2023-02-15T23:18:39.647Z,45.40
2023-02-15T23:21:33.417Z,48.42
2023-02-15T23:24:18.897Z,39.25
2023-02-15T23:27:23.301Z,40.33
2023-02-15T23:30:16.633Z,42.05
2023-02-15T23:33:02.028Z,41.20
2023-02-15T23:35:47.628Z,38.33
2023-02-15T23:38:37.549Z,42.22
2023-02-15T23:41:27.300Z,45.70
2023-02-15T23:44:13.704Z,40.00
2023-02-15T23:46:59.358Z,39.35
2023-02-15T23:49:44.393Z,35.08
2023-02-15T23:52:30.118Z,36.90
2023-02-15T23:55:16.411Z,36.63
2023-02-15T23:58:06.497Z,34.42
